Pagrindinis puslapis
METAR-TAF:

METAR-TAF

Oro uostai :

Pian Rosa, Italija

platuma: 45-56N, ilguma: 007-42E, Aukštis: 3480 m

Dabartinis oras

Ataskaita buvo paskelbta 28 minutes, ne 04:55 UTC
Vėjas 6 kt iš Rytų/Šiaurės Rytų
Temperatūra -6°C
Drėgmė 22%
Slėgis 1022 hPa
Matomumas 10 km arba daugiau
nėra debesų žemiau 1500 m ir nėra kamuolinių lietaus debesų

METAR: LIMH 060455Z 06006KT CAVOK M06/M24 Q1022 RMK SKC MON LIB VAL NIL VIS MIN 9999

Laikas: 06:23 (05:23 UTC)


TAF: trūkstamas

Orai ataskaitas ir orų prognozės (METAR, TAF).

turimą stotys yra geltonos ir raudonos taškus žemėlapyje.

Perkelti pele per norėdami pamatyti stoties vardą.

Tada spustelėkite, norėdami matyti oro stebėjimo ir prognozės.

Norėdami pakeisti žemėlapį: spustelėkite ant žalios mygtukų su juodo kryžiaus žemyn,; žalią mygtuką su brūkšneliu, jei norite nutolinti; arba žalių rodyklių gretimoms žemėlapius.


METAR-TAF: